createdAt,value
2022-09-01T00:00:44.993Z,17.50
2022-09-01T00:03:12.627Z,17.50
2022-09-01T00:05:39.387Z,17.60
2022-09-01T00:08:06.163Z,17.50
2022-09-01T00:10:32.845Z,17.50
2022-09-01T00:12:59.598Z,17.50
2022-09-01T00:15:26.479Z,17.40
2022-09-01T00:17:53.305Z,17.40
2022-09-01T00:20:20.896Z,17.30
2022-09-01T00:22:47.894Z,17.20
2022-09-01T00:25:14.712Z,17.20
2022-09-01T00:27:41.393Z,17.20
2022-09-01T00:30:08.638Z,17.10
2022-09-01T00:32:35.490Z,17.10
2022-09-01T00:35:02.410Z,17.00
2022-09-01T00:37:29.426Z,17.00
2022-09-01T00:39:56.271Z,16.90
2022-09-01T00:42:23.181Z,16.90
2022-09-01T00:44:50.049Z,16.90
2022-09-01T00:47:17.217Z,16.90
2022-09-01T00:49:48.060Z,16.80
2022-09-01T00:52:38.781Z,16.80
2022-09-01T00:55:13.519Z,16.70
2022-09-01T00:57:40.771Z,16.70
2022-09-01T01:00:13.421Z,16.70
2022-09-01T01:02:42.068Z,16.60
2022-09-01T01:05:10.551Z,16.60
2022-09-01T01:07:43.387Z,16.60
2022-09-01T01:10:15.869Z,16.60
2022-09-01T01:12:43.932Z,16.50
2022-09-01T01:15:15.306Z,16.50
2022-09-01T01:17:43.023Z,16.50
2022-09-01T01:20:31.936Z,16.50
2022-09-01T01:23:11.280Z,16.50
2022-09-01T01:25:51.737Z,16.50
2022-09-01T01:28:25.800Z,16.50
2022-09-01T01:31:01.865Z,16.50
2022-09-01T01:33:42.744Z,16.50
2022-09-01T01:36:13.569Z,16.50
2022-09-01T01:38:43.298Z,16.50
2022-09-01T01:41:11.778Z,16.50
2022-09-01T01:43:39.910Z,16.50
2022-09-01T01:46:09.279Z,16.40
2022-09-01T01:48:40.600Z,16.50
2022-09-01T01:51:09.366Z,16.40
2022-09-01T01:53:36.720Z,16.40
2022-09-01T01:56:04.896Z,16.40
2022-09-01T01:58:35.022Z,16.40
2022-09-01T02:01:10.869Z,16.40
2022-09-01T02:03:38.874Z,16.40
2022-09-01T02:06:09.737Z,16.40
2022-09-01T02:08:38.390Z,16.40
2022-09-01T02:11:06.692Z,16.40
2022-09-01T02:13:34.176Z,16.40
2022-09-01T02:16:13.222Z,16.40
2022-09-01T02:18:48.192Z,16.30
2022-09-01T02:21:20.518Z,16.30
2022-09-01T02:23:48.858Z,16.20
2022-09-01T02:26:17.444Z,16.10
2022-09-01T02:28:54.288Z,16.10
2022-09-01T02:31:23.054Z,16.00
2022-09-01T02:33:50.022Z,16.00
2022-09-01T02:36:19.265Z,16.00
2022-09-01T02:38:53.199Z,15.90
2022-09-01T02:41:23.713Z,15.90
2022-09-01T02:43:51.182Z,15.80
2022-09-01T02:46:20.292Z,15.80
2022-09-01T02:48:51.434Z,15.70
2022-09-01T02:51:21.063Z,15.70
2022-09-01T02:53:52.230Z,15.60
2022-09-01T02:56:25.004Z,15.60
2022-09-01T02:58:53.968Z,15.50
2022-09-01T03:01:27.337Z,15.50
2022-09-01T03:03:57.238Z,15.50
2022-09-01T03:06:25.185Z,15.40
2022-09-01T03:08:54.110Z,15.40
2022-09-01T03:11:24.619Z,15.40
2022-09-01T03:13:53.021Z,15.40
2022-09-01T03:16:22.168Z,15.40
2022-09-01T03:18:50.677Z,15.40
2022-09-01T03:21:19.839Z,15.40
2022-09-01T03:23:48.310Z,15.30
2022-09-01T03:26:18.667Z,15.30
2022-09-01T03:28:46.322Z,15.40
2022-09-01T03:31:13.406Z,15.30
2022-09-01T03:33:41.806Z,15.30
2022-09-01T03:36:19.504Z,15.30
2022-09-01T03:38:48.835Z,15.30
2022-09-01T03:41:19.721Z,15.30
2022-09-01T03:43:48.436Z,15.30
2022-09-01T03:46:21.597Z,15.30
2022-09-01T03:48:50.932Z,15.30
2022-09-01T03:51:20.701Z,15.20
2022-09-01T03:53:47.669Z,15.20
2022-09-01T03:56:15.322Z,15.20
2022-09-01T03:58:47.257Z,15.20
2022-09-01T04:01:16.865Z,15.20
2022-09-01T04:03:46.970Z,15.20
2022-09-01T04:06:13.861Z,15.10
2022-09-01T04:08:43.035Z,15.00
2022-09-01T04:11:23.628Z,15.00
2022-09-01T04:13:52.418Z,15.00
2022-09-01T04:16:42.538Z,14.90
2022-09-01T04:19:20.488Z,14.80
2022-09-01T04:21:53.834Z,14.80
2022-09-01T04:24:24.227Z,14.80
2022-09-01T04:26:52.745Z,14.70
2022-09-01T04:29:27.401Z,14.70
2022-09-01T04:31:57.338Z,14.70
2022-09-01T04:34:24.882Z,14.70
2022-09-01T04:36:55.516Z,14.60
2022-09-01T04:39:23.446Z,14.70
2022-09-01T04:41:51.279Z,14.70
2022-09-01T04:44:19.325Z,14.60
2022-09-01T04:46:48.441Z,14.60
2022-09-01T04:49:19.636Z,14.60
2022-09-01T04:51:53.304Z,14.60
2022-09-01T04:54:22.904Z,14.60
2022-09-01T04:56:51.463Z,14.60
2022-09-01T04:59:21.907Z,14.50
2022-09-01T05:01:57.572Z,14.50
2022-09-01T05:04:28.693Z,14.50
2022-09-01T05:07:01.333Z,14.50
2022-09-01T05:09:38.779Z,14.50
2022-09-01T05:12:24.339Z,14.50
2022-09-01T05:14:52.490Z,14.50
2022-09-01T05:17:21.634Z,14.50
2022-09-01T05:19:50.653Z,14.50
2022-09-01T05:22:22.039Z,14.50
2022-09-01T05:25:05.067Z,14.50
2022-09-01T05:27:32.499Z,14.60
2022-09-01T05:30:01.327Z,14.70
2022-09-01T05:32:33.610Z,15.00
2022-09-01T05:35:02.109Z,15.30
2022-09-01T05:37:30.318Z,15.60
2022-09-01T05:39:58.734Z,15.80
2022-09-01T05:42:26.749Z,15.90
2022-09-01T05:44:53.568Z,15.90
2022-09-01T05:47:21.874Z,15.70
2022-09-01T05:49:51.090Z,15.70
2022-09-01T05:52:25.033Z,15.50
2022-09-01T05:54:53.354Z,15.40
2022-09-01T05:57:34.187Z,15.40
2022-09-01T06:00:11.004Z,15.30
2022-09-01T06:02:41.161Z,15.20
2022-09-01T06:05:11.098Z,15.30
2022-09-01T06:07:41.006Z,15.50
2022-09-01T06:10:08.665Z,16.00
2022-09-01T06:12:35.802Z,16.40
2022-09-01T06:15:03.123Z,16.50
2022-09-01T06:17:31.926Z,16.50
2022-09-01T06:20:10.820Z,16.40
2022-09-01T06:22:41.182Z,16.20
2022-09-01T06:25:09.610Z,16.20
2022-09-01T06:27:41.099Z,16.30
2022-09-01T06:30:15.042Z,16.50
2022-09-01T06:32:49.741Z,16.90
2022-09-01T06:35:18.104Z,17.00
2022-09-01T06:37:45.974Z,17.30
2022-09-01T06:40:25.438Z,17.90
2022-09-01T06:42:53.160Z,18.60
2022-09-01T06:45:21.521Z,19.40
2022-09-01T06:47:51.061Z,20.00
2022-09-01T06:56:02.918Z,21.90
2022-09-01T06:58:31.351Z,22.50
2022-09-01T07:00:58.279Z,22.90
2022-09-01T07:03:26.592Z,23.20
2022-09-01T07:09:20.276Z,23.90
2022-09-01T07:20:27.261Z,25.00
2022-09-01T07:23:05.481Z,25.00
2022-09-01T07:26:00.533Z,25.40
2022-09-01T07:28:37.022Z,25.60
2022-09-01T07:33:55.699Z,26.00
2022-09-01T07:39:48.998Z,26.60
2022-09-01T07:46:36.673Z,27.20
2022-09-01T07:49:02.585Z,27.40
2022-09-01T07:51:40.778Z,27.60
2022-09-01T07:54:07.933Z,27.90
2022-09-01T07:56:39.796Z,28.00
2022-09-01T07:59:15.005Z,28.10
2022-09-01T08:01:50.618Z,27.90
2022-09-01T08:04:18.583Z,27.70
2022-09-01T08:06:45.334Z,27.70
2022-09-01T08:09:27.298Z,27.50
2022-09-01T08:12:02.162Z,27.50
2022-09-01T08:14:34.839Z,27.70
2022-09-01T08:19:53.700Z,27.60
2022-09-01T08:22:35.486Z,27.80
2022-09-01T08:25:12.234Z,28.10
2022-09-01T08:27:39.671Z,28.30
2022-09-01T08:30:07.993Z,28.40
2022-09-01T08:32:35.430Z,28.50
2022-09-01T08:35:04.889Z,28.70
2022-09-01T08:37:32.433Z,29.00
2022-09-01T08:39:59.461Z,29.00
2022-09-01T08:42:32.803Z,28.90
2022-09-01T08:45:00.315Z,28.90
2022-09-01T08:47:43.704Z,28.90
2022-09-01T08:50:21.012Z,28.90
2022-09-01T08:53:29.767Z,28.90
2022-09-01T08:55:59.780Z,29.20
2022-09-01T08:58:30.983Z,29.30
2022-09-01T09:01:27.592Z,29.40
2022-09-01T09:03:54.365Z,29.40
2022-09-01T09:06:24.694Z,29.50
2022-09-01T09:08:57.858Z,29.40
2022-09-01T09:11:33.271Z,29.30
2022-09-01T09:14:00.020Z,29.40
2022-09-01T09:16:47.886Z,29.50
2022-09-01T09:19:21.417Z,29.70
2022-09-01T09:21:49.018Z,29.60
2022-09-01T09:24:29.180Z,29.60
2022-09-01T09:27:05.456Z,29.80
2022-09-01T09:29:33.948Z,30.00
2022-09-01T09:32:06.190Z,29.90
2022-09-01T09:34:43.062Z,29.90
2022-09-01T09:37:28.498Z,29.70
2022-09-01T09:40:04.000Z,29.70
2022-09-01T09:42:34.863Z,29.70
2022-09-01T09:45:04.358Z,29.70
2022-09-01T09:47:43.690Z,29.80
2022-09-01T09:50:14.683Z,29.70
2022-09-01T09:52:41.502Z,29.90
2022-09-01T09:55:29.439Z,30.10
2022-09-01T09:57:58.546Z,30.00
2022-09-01T10:00:36.619Z,30.00
2022-09-01T10:03:08.059Z,29.90
2022-09-01T10:05:48.771Z,29.70
2022-09-01T10:08:28.482Z,29.60
2022-09-01T10:10:58.348Z,29.60
2022-09-01T10:13:32.556Z,29.50
2022-09-01T10:16:10.402Z,29.40
2022-09-01T10:18:40.033Z,29.20
2022-09-01T10:21:12.131Z,29.20
2022-09-01T10:23:41.259Z,29.20
2022-09-01T10:26:15.751Z,29.30
2022-09-01T10:28:54.756Z,29.20
2022-09-01T10:31:22.165Z,29.10
2022-09-01T10:33:49.694Z,28.70
2022-09-01T10:36:17.015Z,27.70
2022-09-01T10:38:53.736Z,27.00
2022-09-01T10:42:07.516Z,26.50
2022-09-01T10:44:39.011Z,26.50
2022-09-01T10:47:24.413Z,26.50
2022-09-01T10:49:51.179Z,26.60
2022-09-01T10:52:37.245Z,26.90
2022-09-01T10:55:04.661Z,26.70
2022-09-01T10:57:47.559Z,26.70
2022-09-01T11:00:39.937Z,26.70
2022-09-01T11:06:13.588Z,26.40
2022-09-01T11:08:50.833Z,26.60
2022-09-01T11:11:27.259Z,26.80
2022-09-01T11:13:58.956Z,27.10
2022-09-01T11:19:18.331Z,27.50
2022-09-01T11:21:45.158Z,27.60
2022-09-01T11:24:30.575Z,27.70
2022-09-01T11:26:58.295Z,27.50
2022-09-01T11:29:43.999Z,27.40
2022-09-01T11:32:11.339Z,27.30
2022-09-01T11:34:44.511Z,27.40
2022-09-01T11:37:15.257Z,27.40
2022-09-01T11:39:49.536Z,27.50
2022-09-01T11:42:21.692Z,27.40
2022-09-01T11:44:54.070Z,27.20
2022-09-01T11:47:24.409Z,27.30
2022-09-01T11:49:51.251Z,27.50
2022-09-01T11:52:20.513Z,27.60
2022-09-01T11:54:49.307Z,27.70
2022-09-01T11:57:34.808Z,27.60
2022-09-01T12:00:25.866Z,27.20
2022-09-01T12:02:54.834Z,26.60
2022-09-01T12:05:38.810Z,26.50
2022-09-01T12:08:23.948Z,26.80
2022-09-01T12:10:51.495Z,27.00
2022-09-01T12:13:21.436Z,27.10
2022-09-01T12:16:16.993Z,27.20
2022-09-01T12:18:53.927Z,27.30
2022-09-01T12:21:31.302Z,27.40
2022-09-01T12:24:16.504Z,27.20
2022-09-01T12:26:44.263Z,27.00
2022-09-01T12:29:13.875Z,27.00
2022-09-01T12:31:46.030Z,27.00
2022-09-01T12:34:31.425Z,27.20
2022-09-01T12:37:15.386Z,27.40
2022-09-01T12:39:48.026Z,27.50
2022-09-01T12:42:21.282Z,27.50
2022-09-01T12:44:51.803Z,27.50
2022-09-01T12:47:33.913Z,27.60
2022-09-01T12:50:06.757Z,27.90
2022-09-01T12:52:34.401Z,27.90
2022-09-01T12:55:02.699Z,28.00
2022-09-01T12:57:29.468Z,27.80
2022-09-01T13:00:25.774Z,27.70
2022-09-01T13:05:43.361Z,27.80
2022-09-01T13:08:13.256Z,27.70
2022-09-01T13:10:39.991Z,27.60
2022-09-01T13:13:07.473Z,27.50
2022-09-01T13:15:35.923Z,27.70
2022-09-01T13:18:03.378Z,27.80
2022-09-01T13:20:30.214Z,27.80
2022-09-01T13:22:57.250Z,27.60
2022-09-01T13:25:24.494Z,27.40
2022-09-01T13:27:52.924Z,27.40
2022-09-01T13:30:22.662Z,27.20
2022-09-01T13:35:37.274Z,27.00
2022-09-01T13:38:04.451Z,26.90
2022-09-01T13:40:31.715Z,27.00
2022-09-01T13:42:59.083Z,27.00
2022-09-01T13:45:26.170Z,27.10
2022-09-01T13:53:30.271Z,27.20
2022-09-01T13:58:43.951Z,27.40
2022-09-01T14:01:13.755Z,27.40
2022-09-01T14:03:40.547Z,27.00
2022-09-01T14:06:07.392Z,26.80
2022-09-01T14:08:34.284Z,26.80
2022-09-01T14:11:01.047Z,26.90
2022-09-01T14:13:27.910Z,26.70
2022-09-01T14:15:54.864Z,26.40
2022-09-01T14:18:22.362Z,26.10
2022-09-01T14:20:51.048Z,26.00
2022-09-01T14:23:18.506Z,25.90
2022-09-01T14:25:46.966Z,25.90
2022-09-01T14:28:14.116Z,25.90
2022-09-01T14:30:43.989Z,26.00
2022-09-01T14:33:11.112Z,26.10
2022-09-01T14:35:42.413Z,26.30
2022-09-01T14:38:09.609Z,26.30
2022-09-01T14:40:37.996Z,26.10
2022-09-01T14:43:06.094Z,25.70
2022-09-01T14:45:32.926Z,25.40
2022-09-01T14:48:01.065Z,25.20
2022-09-01T14:50:30.302Z,25.10
2022-09-01T14:52:57.416Z,25.20
2022-09-01T14:55:25.563Z,25.20
2022-09-01T14:57:52.533Z,25.40
2022-09-01T15:00:19.363Z,25.40
2022-09-01T15:02:46.189Z,25.30
2022-09-01T15:05:13.073Z,25.20
2022-09-01T15:07:40.307Z,25.20
2022-09-01T15:10:07.653Z,25.30
2022-09-01T15:12:34.426Z,25.40
2022-09-01T15:15:01.621Z,25.50
2022-09-01T15:17:28.921Z,25.50
2022-09-01T15:19:55.869Z,25.40
2022-09-01T15:22:22.602Z,25.40
2022-09-01T15:24:49.337Z,25.40
2022-09-01T15:27:16.012Z,25.50
2022-09-01T15:29:47.922Z,25.70
2022-09-01T15:32:27.639Z,25.50
2022-09-01T15:34:55.227Z,25.50
2022-09-01T15:37:21.983Z,25.40
2022-09-01T15:39:48.683Z,25.30
2022-09-01T15:42:17.413Z,25.20
2022-09-01T15:44:44.450Z,25.20
2022-09-01T15:47:11.171Z,25.20
2022-09-01T15:49:37.898Z,25.10
2022-09-01T15:52:04.803Z,25.00
2022-09-01T15:54:31.650Z,25.00
2022-09-01T15:56:58.490Z,24.90
2022-09-01T15:59:25.326Z,24.60
2022-09-01T16:01:54.085Z,24.50
2022-09-01T16:04:25.428Z,24.60
2022-09-01T16:06:56.684Z,24.50
2022-09-01T16:09:25.474Z,24.50
2022-09-01T16:11:52.849Z,24.50
2022-09-01T16:14:21.223Z,24.50
2022-09-01T16:16:53.381Z,24.50
2022-09-01T16:19:39.093Z,24.50
2022-09-01T16:22:16.135Z,24.50
2022-09-01T16:24:44.740Z,24.50
2022-09-01T16:27:14.465Z,24.40
2022-09-01T16:29:46.777Z,24.30
2022-09-01T16:32:13.760Z,24.30
2022-09-01T16:34:46.728Z,24.10
2022-09-01T16:37:32.397Z,24.00
2022-09-01T16:40:19.463Z,23.90
2022-09-01T16:43:12.467Z,23.80
2022-09-01T16:45:51.744Z,23.70
2022-09-01T16:48:25.772Z,23.60
2022-09-01T16:50:57.213Z,23.60
2022-09-01T16:53:39.670Z,23.70
2022-09-01T16:56:09.462Z,23.60
2022-09-01T16:58:55.257Z,23.50
2022-09-01T17:01:34.218Z,23.50
2022-09-01T17:04:01.003Z,23.50
2022-09-01T17:06:32.225Z,23.40
2022-09-01T17:09:21.318Z,23.30
2022-09-01T17:11:59.062Z,23.20
2022-09-01T17:14:32.247Z,23.20
2022-09-01T17:17:05.192Z,23.10
2022-09-01T17:19:31.993Z,23.00
2022-09-01T17:22:10.289Z,22.90
2022-09-01T17:24:38.742Z,22.90
2022-09-01T17:27:19.157Z,22.90
2022-09-01T17:29:48.041Z,22.80
2022-09-01T17:32:14.795Z,22.70
2022-09-01T17:34:49.902Z,22.70
2022-09-01T17:37:28.707Z,22.60
2022-09-01T17:40:15.799Z,22.60
2022-09-01T17:42:42.643Z,22.50
2022-09-01T17:45:13.051Z,22.50
2022-09-01T17:47:40.033Z,22.50
2022-09-01T17:50:11.986Z,22.40
2022-09-01T17:52:59.048Z,22.40
2022-09-01T17:55:28.692Z,22.40
2022-09-01T17:57:55.397Z,22.30
2022-09-01T18:00:24.324Z,22.20
2022-09-01T18:03:06.091Z,22.20
2022-09-01T18:05:39.812Z,22.10
2022-09-01T18:08:21.715Z,22.10
2022-09-01T18:10:50.361Z,22.00
2022-09-01T18:13:51.858Z,22.00
2022-09-01T18:16:20.016Z,21.90
2022-09-01T18:18:51.067Z,21.80
2022-09-01T18:21:17.914Z,21.80
2022-09-01T18:23:45.995Z,21.80
2022-09-01T18:26:12.720Z,21.70
2022-09-01T18:28:39.466Z,21.70
2022-09-01T18:31:16.954Z,21.60
2022-09-01T18:34:01.757Z,21.60
2022-09-01T18:36:31.224Z,21.50
2022-09-01T18:39:01.897Z,21.50
2022-09-01T18:41:33.729Z,21.40
2022-09-01T18:44:03.312Z,21.40
2022-09-01T18:46:39.269Z,21.30
2022-09-01T18:49:09.751Z,21.20
2022-09-01T18:51:56.650Z,21.20
2022-09-01T18:54:37.628Z,21.20
2022-09-01T18:57:05.803Z,21.10
2022-09-01T18:59:47.569Z,21.10
2022-09-01T19:02:14.389Z,21.10
2022-09-01T19:04:42.393Z,21.10
2022-09-01T19:07:27.648Z,21.10
2022-09-01T19:10:12.970Z,21.10
2022-09-01T19:13:03.519Z,21.20
2022-09-01T19:15:35.197Z,21.20
2022-09-01T19:18:12.812Z,21.20
2022-09-01T19:20:43.472Z,21.10
2022-09-01T19:23:12.368Z,21.10
2022-09-01T19:25:40.394Z,21.10
2022-09-01T19:28:27.127Z,21.10
2022-09-01T19:31:13.152Z,21.00
2022-09-01T19:33:49.449Z,21.00
2022-09-01T19:36:22.334Z,21.00
2022-09-01T19:38:49.126Z,21.00
2022-09-01T19:41:15.930Z,21.00
2022-09-01T19:43:43.451Z,21.00
2022-09-01T19:46:31.605Z,21.10
2022-09-01T19:49:04.355Z,21.10
2022-09-01T19:51:38.415Z,21.10
2022-09-01T19:54:17.802Z,21.10
2022-09-01T19:56:51.451Z,21.10
2022-09-01T19:59:25.285Z,21.10
2022-09-01T20:02:05.232Z,21.00
2022-09-01T20:04:37.956Z,21.00
2022-09-01T20:07:08.439Z,21.00
2022-09-01T20:09:46.052Z,21.00
2022-09-01T20:12:16.198Z,21.00
2022-09-01T20:15:03.205Z,21.00
2022-09-01T20:17:29.889Z,21.00
2022-09-01T20:20:14.913Z,20.90
2022-09-01T20:22:41.620Z,20.90
2022-09-01T20:25:24.056Z,20.90
2022-09-01T20:27:50.764Z,20.90
2022-09-01T20:30:22.099Z,20.80
2022-09-01T20:32:51.948Z,20.80
2022-09-01T20:35:22.603Z,20.70
2022-09-01T20:37:52.105Z,20.70
2022-09-01T20:40:32.635Z,20.70
2022-09-01T20:43:06.635Z,20.70
2022-09-01T20:45:33.493Z,20.70
2022-09-01T20:48:03.093Z,20.70
2022-09-01T20:50:32.880Z,20.70
2022-09-01T20:52:59.622Z,20.70
2022-09-01T20:55:29.318Z,20.70
2022-09-01T20:58:16.332Z,20.70
2022-09-01T21:00:55.633Z,20.70
2022-09-01T21:03:22.492Z,20.50
2022-09-01T21:06:15.916Z,20.50
2022-09-01T21:08:55.574Z,20.40
2022-09-01T21:11:27.309Z,20.40
2022-09-01T21:14:08.753Z,20.40
2022-09-01T21:16:59.916Z,20.30
2022-09-01T21:19:31.882Z,20.30
2022-09-01T21:22:04.102Z,20.20
2022-09-01T21:24:30.899Z,20.20
2022-09-01T21:26:59.067Z,20.10
2022-09-01T21:29:31.229Z,20.10
2022-09-01T21:31:59.162Z,20.10
2022-09-01T21:34:26.551Z,20.00
2022-09-01T21:44:17.854Z,19.40
2022-09-01T21:46:44.648Z,19.30
2022-09-01T21:49:14.141Z,19.20
2022-09-01T21:51:41.445Z,19.00
2022-09-01T21:54:08.519Z,19.00
2022-09-01T21:56:35.324Z,18.90
2022-09-01T21:59:02.062Z,18.80
2022-09-01T22:01:31.338Z,18.70
2022-09-01T22:03:58.482Z,18.60
2022-09-01T22:06:25.551Z,18.50
2022-09-01T22:08:52.590Z,18.50
2022-09-01T22:11:21.226Z,18.50
2022-09-01T22:13:49.035Z,18.40
2022-09-01T22:16:17.004Z,18.30
2022-09-01T22:18:43.835Z,18.20
2022-09-01T22:21:11.227Z,18.20
2022-09-01T22:23:38.066Z,18.10
2022-09-01T22:26:04.975Z,18.00
2022-09-01T22:28:31.923Z,18.00
2022-09-01T22:30:59.309Z,18.00
2022-09-01T22:33:26.350Z,18.00
2022-09-01T22:35:56.198Z,17.90
2022-09-01T22:38:23.296Z,17.90
2022-09-01T22:40:55.398Z,17.90
2022-09-01T22:43:23.044Z,17.90
2022-09-01T22:45:50.709Z,17.80
2022-09-01T22:48:18.635Z,17.80
2022-09-01T22:50:46.201Z,17.70
2022-09-01T22:53:14.431Z,17.70
2022-09-01T22:55:44.333Z,17.60
2022-09-01T22:58:12.006Z,17.60
2022-09-01T23:00:47.885Z,17.50
2022-09-01T23:03:15.749Z,17.50
2022-09-01T23:05:43.906Z,17.50
2022-09-01T23:08:11.682Z,17.40
2022-09-01T23:10:38.706Z,17.40
2022-09-01T23:13:08.487Z,17.40
2022-09-01T23:15:35.316Z,17.30
2022-09-01T23:18:02.229Z,17.30
2022-09-01T23:20:29.697Z,17.20
2022-09-01T23:22:56.557Z,17.30
2022-09-01T23:25:24.479Z,17.20
2022-09-01T23:27:51.361Z,17.10
2022-09-01T23:30:18.176Z,17.10
2022-09-01T23:32:45.029Z,17.10
2022-09-01T23:35:11.850Z,17.10
2022-09-01T23:37:38.689Z,17.00
2022-09-01T23:40:06.509Z,17.00
2022-09-01T23:42:34.045Z,17.00
2022-09-01T23:45:00.793Z,17.00
2022-09-01T23:47:28.114Z,16.90
2022-09-01T23:49:56.492Z,16.90
2022-09-01T23:52:23.248Z,16.90
2022-09-01T23:54:50.044Z,16.90
2022-09-01T23:57:16.993Z,16.80
2022-09-01T23:59:43.786Z,16.80
